Departure
Alderney Airport
Saint Anne, GG
cloud Weather
- Wind
- 280° / 6 kt
- Visibility
- 6 SM
- Ceiling
- FEW 2,000 ft
- Temp / Dew
- 15°C / 12°C
- Altimeter
- 30.15 inHg
Obs: 2026-09-01T05:50:00.000Z
Raw METAR
METAR EGJA 010550Z 28006KT 9999 FEW020 15/12 Q1021
route Route
Departure
Saint Anne, GG
Obs: 2026-09-01T05:50:00.000Z
METAR EGJA 010550Z 28006KT 9999 FEW020 15/12 Q1021
Arrival
Saint Peter Port, GG
Obs: 2026-09-01T05:50:00.000Z
METAR EGJB 010550Z 27004KT 9999 FEW015 14/12 Q1022 TAF EGJB 010501Z 0106/0115 27006KT 9999 SCT015
| Airline | Flights shown |
|---|---|
| Aurigny Air Services | 32 |
| Date | Flight | Aircraft | Takeoff | Landing | Duration | Arr Δ |
|---|---|---|---|---|---|---|
| 2026-07-26 | AUR215 | 401128 | Jul 26, 15:40 UTC | Jul 26, 18:15 UTC | 2h 35m | - |
| 2026-07-21 | AUR209 | 4012DA | Jul 21, 14:40 UTC | Jul 21, 17:25 UTC | 2h 45m | - |
| 2026-07-18 | AUR209 | 408336 | Jul 18, 13:50 UTC | Jul 18, 14:05 UTC | 15m | - |
| 2026-07-18 | AUR205 | 408336 | Jul 18, 11:20 UTC | Jul 18, 11:40 UTC | 20m | - |
| 2026-07-18 | AUR201 | 408336 | Jul 18, 06:55 UTC | Jul 18, 07:10 UTC | 15m | - |
| 2026-07-17 | AUR209 | 408336 | Jul 17, 16:10 UTC | Jul 17, 16:24 UTC | 15m | - |
| 2026-07-16 | AUR209 | 408336 | Jul 16, 15:14 UTC | Jul 16, 15:30 UTC | 15m | - |
| 2026-07-14 | AUR205 | 408336 | Jul 14, 11:25 UTC | Jul 14, 11:40 UTC | 15m | - |
| 2026-07-07 | AUR209 | 408336 | Jul 7, 15:30 UTC | Jul 7, 15:40 UTC | 10m | - |
| 2026-07-07 | AUR205 | 401128 | Jul 7, 12:05 UTC | Jul 7, 12:30 UTC | 25m | - |
| 2026-07-04 | AUR201 | 401128 | Jul 4, 11:50 UTC | Jul 4, 12:20 UTC | 30m | - |
| 2026-07-03 | GCLKB | 407935 | Jul 3, 09:00 UTC | Jul 3, 09:20 UTC | 20m | - |
| 2026-07-03 | AUR501 | 401127 | Jul 3, 08:40 UTC | Jul 3, 11:20 UTC | 2h 40m | - |
| 2026-07-01 | GJACH | 404AC6 | Jul 1, 08:25 UTC | Jul 1, 08:40 UTC | 15m | - |
| 2026-06-28 | AUR205 | 4012DA | Jun 28, 11:14 UTC | Jun 28, 11:35 UTC | 20m | - |
| 2026-06-25 | AUR209 | 401127 | Jun 25, 15:15 UTC | Jun 25, 15:40 UTC | 25m | - |
| 2026-06-22 | AUR209 | 401128 | Jun 22, 15:20 UTC | Jun 22, 15:40 UTC | 20m | - |
| 2026-06-22 | GPWFW | 4079B6 | Jun 22, 11:19 UTC | Jun 22, 11:35 UTC | 15m | - |
| 2026-06-20 | HBSGY | 4B303C | Jun 20, 13:55 UTC | Jun 20, 14:19 UTC | 25m | - |
| 2026-06-20 | GSBOY | 40406D | Jun 20, 13:24 UTC | Jun 20, 13:39 UTC | 15m | - |
| 2026-06-17 | AUR209 | 401127 | Jun 17, 18:45 UTC | Jun 17, 19:30 UTC | 45m | - |
| 2026-06-17 | AUR999 | 401127 | Jun 17, 17:25 UTC | Jun 17, 17:45 UTC | 20m | - |
| 2026-06-14 | AUR215 | 4012DA | Jun 14, 17:05 UTC | Jun 14, 18:05 UTC | 1h 0m | - |
| 2026-06-14 | AUR209 | 4012DA | Jun 14, 16:10 UTC | Jun 14, 16:20 UTC | 10m | - |
| 2026-06-14 | AUR999 | 401127 | Jun 14, 14:45 UTC | Jun 14, 15:15 UTC | 30m | - |
| 2026-06-14 | AUR205 | 401127 | Jun 14, 11:20 UTC | Jun 14, 11:35 UTC | 15m | - |
| 2026-06-13 | AUR215 | 4012DA | Jun 13, 17:05 UTC | Jun 13, 18:05 UTC | 1h 0m | - |
| 2026-06-13 | AUR209 | 4012DA | Jun 13, 16:10 UTC | Jun 13, 16:30 UTC | 20m | - |
| 2026-06-11 | AUR209 | 4012DA | Jun 11, 15:30 UTC | Jun 11, 15:55 UTC | 25m | - |
| 2026-06-11 | AUR205 | 401127 | Jun 11, 12:55 UTC | Jun 11, 13:20 UTC | 25m | - |
| 2026-06-10 | AUR205 | 401128 | Jun 10, 11:20 UTC | Jun 10, 11:40 UTC | 20m | - |
| 2026-06-09 | AUR215 | 401127 | Jun 9, 16:45 UTC | Jun 9, 17:25 UTC | 40m | - |
| 2026-06-09 | AUR205 | 401128 | Jun 9, 11:35 UTC | Jun 9, 12:00 UTC | 25m | - |
| 2026-06-08 | AUR215 | 401128 | Jun 8, 17:00 UTC | Jun 8, 17:15 UTC | 15m | - |
| 2026-06-07 | AUR209 | 401127 | Jun 7, 16:25 UTC | Jun 7, 16:45 UTC | 20m | - |
| 2026-06-06 | AUR205 | 401127 | Jun 6, 14:30 UTC | Jun 6, 14:54 UTC | 25m | - |
| 2026-06-05 | AUR215 | 401127 | Jun 5, 18:05 UTC | Jun 5, 18:25 UTC | 20m | - |
| 2026-06-05 | AUR209 | 401127 | Jun 5, 16:15 UTC | Jun 5, 16:40 UTC | 25m | - |
| 2026-06-05 | AUR209 | 4012DA | Jun 5, 11:15 UTC | Jun 5, 11:35 UTC | 20m | - |
| 2026-06-04 | AUR215 | 4012DA | Jun 4, 16:30 UTC | Jun 4, 17:20 UTC | 50m | - |
| 2026-06-04 | AUR209 | 4012DA | Jun 4, 15:25 UTC | Jun 4, 15:45 UTC | 20m | - |
| 2026-06-04 | AUR201 | 4012DA | Jun 4, 06:25 UTC | Jun 4, 08:05 UTC | 1h 40m | - |
| 2026-06-02 | AUR215 | 4012DA | Jun 2, 18:20 UTC | Jun 2, 19:15 UTC | 55m | - |
| 2026-06-02 | AUR999 | 4012DA | Jun 2, 11:25 UTC | Jun 2, 14:50 UTC | 3h 25m | - |
| 2026-05-31 | AUR999 | 4012DA | May 31, 20:15 UTC | May 31, 20:45 UTC | 30m | - |
| 2026-05-31 | AUR215 | 4012DA | May 31, 17:00 UTC | May 31, 18:15 UTC | 1h 15m | - |
| 2026-05-31 | AUR209 | 4012DA | May 31, 16:05 UTC | May 31, 16:25 UTC | 20m | - |
| 2026-05-30 | AUR205 | 4012DA | May 30, 11:25 UTC | May 30, 11:40 UTC | 15m | - |
| 2026-05-30 | AUR201 | 4012DA | May 30, 07:10 UTC | May 30, 08:05 UTC | 55m | - |
| 2026-05-29 | N936CT | ACFC37 | May 29, 14:05 UTC | May 29, 14:20 UTC | 15m | - |